Ocean Mercury — 3EUK5 — position and weather

sailwx.info

Track history (hours):
 
Tides and Currents Weather Stations Pressure Air Temp Water Temp Dewpoint Dewpoint Depression Visibility Wind Speed Wind Dir Waves Ship Positions

Ocean Mercury

Last reported at 2017-Sep-22 02:00 UTC. Time now 2017-Sep-23 02:24 UTC.
Position N 50°30' W 000°10'.

Length 186 m; draft 10.6 m.

Type: Cargo ship. MMSI: 373155000.

Date/timePositionNaut miles runAvg speedWind from/ knotsBaromVisibWave heightAir tempDewpointWater temp
2017-Sep-22 02:00N 50°30' W 000°10'713.3
2017-Sep-22 01:30N 50°32' E 000°00'612.8
2017-Sep-22 01:00N 50°34' E 000°10'612.2
2017-Sep-22 00:30N 50°35' E 000°19'611.6
2017-Sep-22 00:00N 50°37' E 000°28'511.0
2017-Sep-21 23:30N 50°39' E 000°36'510.9
2017-Sep-21 23:00N 50°42' E 000°43'510.6
2017-Sep-21 22:30N 50°45' E 000°50'510.7
2017-Sep-21 22:00N 50°48' E 000°57'611.3
2017-Sep-21 21:29N 50°51' E 001°05'612.2
2017-Sep-21 20:59N 50°56' E 001°12'613.4
2017-Sep-21 20:30N 50°60' E 001°19'714.4
2017-Sep-21 20:00N 51°04' E 001°28'714.8
2017-Sep-21 19:30N 51°09' E 001°37'714.0
2017-Sep-21 19:01N 51°14' E 001°45'713.2
2017-Sep-21 18:31N 51°20' E 001°50'612.2
2017-Sep-21 18:01N 51°25' E 001°54'611.3
2017-Sep-21 17:30N 51°30' E 001°60'511.0
2017-Sep-21 17:01N 51°34' E 002°06'510.8
2017-Sep-21 16:31N 51°38' E 002°11'510.5
2017-Sep-21 16:00N 51°42' E 002°17'510.3
2017-Sep-21 15:30N 51°46' E 002°23'15 9.8
2017-Sep-21 13:59N 51°58' E 002°37'510.2
2017-Sep-21 13:27N 52°03' E 002°38'1211.0
2017-Sep-21 12:23N 52°15' E 002°39'512.0
2017-Sep-21 11:58N 52°20' E 002°38'712.4
2017-Sep-21 11:26N 52°26' E 002°38'9611.6
2017-Sep-21 03:10N 53°59' E 003°24'1312.3
2017-Sep-21 02:06N 53°60' E 003°47'18311.6
2017-Sep-20 10:21N 56°21' E 007°09'412.4
2017-Sep-20 10:00N 56°25' E 007°13'612.4
2017-Sep-20 09:30N 56°30' E 007°19'612.4
2017-Sep-20 09:00N 56°35' E 007°25'12211.4
2017-Sep-19 22:20N 57°47' E 010°27'512.5
2017-Sep-19 21:58N 57°47' E 010°36'612.4
2017-Sep-19 21:30N 57°48' E 010°47'511.1
2017-Sep-19 21:00N 57°44' E 010°54'712.3
2017-Sep-19 20:28N 57°40' E 011°04'612.6
2017-Sep-19 20:01N 57°36' E 011°12'612.5
2017-Sep-19 19:30N 57°32' E 011°21'612.5
2017-Sep-19 19:00N 57°26' E 011°27'612.6
2017-Sep-19 18:30N 57°20' E 011°31'612.3
2017-Sep-19 18:00N 57°15' E 011°35'712.3
2017-Sep-19 17:26N 57°08' E 011°39'612.7
2017-Sep-19 16:57N 57°02' E 011°43'10511.3
2017-Sep-19 07:36N 55°19' E 011°02'612.6
2017-Sep-19 07:07N 55°14' E 011°06'112.6
2017-Sep-19 07:00N 55°12' E 011°06'613.1
2017-Sep-19 06:31N 55°06' E 011°03'713.2
2017-Sep-19 06:01N 54°60' E 010°59'713.0
2017-Sep-19 05:30N 54°55' E 010°52'713.4
2017-Sep-19 05:01N 54°48' E 010°50'612.1
2017-Sep-19 04:31N 54°42' E 010°46'4 8.0
2017-Sep-19 04:01N 54°39' E 010°50'3 5.5
2017-Sep-19 03:31N 54°38' E 010°54'4 7.6
2017-Sep-19 03:01N 54°36' E 011°00'612.0
2017-Sep-19 02:31N 54°36' E 011°11'611.4
2017-Sep-19 02:01N 54°34' E 011°20'612.1
2017-Sep-19 01:31N 54°31' E 011°29'612.0
2017-Sep-19 01:00N 54°28' E 011°38'612.1
2017-Sep-19 00:30N 54°26' E 011°48'712.2
2017-Sep-18 23:56N 54°26' E 011°60'512.2
2017-Sep-18 23:31N 54°26' E 012°09'611.4
2017-Sep-18 23:01N 54°31' E 012°13'612.1
2017-Sep-18 22:31N 54°37' E 012°16'712.2
2017-Sep-18 21:57N 54°41' E 012°26'512.2
2017-Sep-18 21:31N 54°44' E 012°34'1811.9
2017-Sep-18 19:57N 54°52' E 013°03'512.1
2017-Sep-18 19:31N 54°53' E 013°12'1712.2
2017-Sep-18 18:09N 54°59' E 013°39'1412.0
2017-Sep-18 16:59N 55°04' E 014°02'812.3
2017-Sep-18 16:18N 55°10' E 014°12'412.3
2017-Sep-18 15:59N 55°13' E 014°16'612.1
2017-Sep-18 15:30N 55°17' E 014°23'612.2
2017-Sep-18 15:00N 55°22' E 014°30'612.1
2017-Sep-18 14:30N 55°27' E 014°37'712.8
2017-Sep-18 13:59N 55°30' E 014°47'1112.7
2017-Sep-18 13:07N 55°35' E 015°04'212.6
2017-Sep-18 13:00N 55°36' E 015°07'612.4
2017-Sep-18 12:31N 55°38' E 015°17'612.6
2017-Sep-18 12:01N 55°40' E 015°27'612.5
2017-Sep-18 11:31N 55°41' E 015°38'612.6
2017-Sep-18 11:01N 55°43' E 015°49'612.7
2017-Sep-18 10:31N 55°44' E 015°60'612.6
2017-Sep-18 10:01N 55°46' E 016°11'612.5
2017-Sep-18 09:31N 55°48' E 016°21'612.6
2017-Sep-18 09:01N 55°49' E 016°32'612.5
2017-Sep-18 08:30N 55°51' E 016°43'301 7.9
2017-Sep-16 18:34N 59°34' E 023°00'112.6
2017-Sep-16 18:29N 59°35' E 023°02'612.4
2017-Sep-16 18:00N 59°37' E 023°14'612.1
2017-Sep-16 17:30N 59°38' E 023°25'612.1
2017-Sep-16 17:00N 59°39' E 023°37'612.2
2017-Sep-16 16:29N 59°41' E 023°49'612.2
2017-Sep-16 16:00N 59°42' E 023°60'712.4
2017-Sep-16 15:28N 59°45' E 024°13'512.0
2017-Sep-16 15:01N 59°46' E 024°23'611.5
2017-Sep-16 14:31N 59°47' E 024°34'611.4
2017-Sep-16 14:01N 59°48' E 024°45'611.6
2017-Sep-16 13:31N 59°50' E 024°56'3911.6
2017-Sep-16 10:07N 60°00' E 026°12'111.5
2017-Sep-16 10:01N 60°01' E 026°14'611.5
2017-Sep-16 09:31N 60°04' E 026°23'611.4
2017-Sep-16 09:01N 60°08' E 026°32'5 9.3
2017-Sep-16 08:30N 60°11' E 026°39'611.7
2017-Sep-16 08:00N 60°15' E 026°49'510.3
2017-Sep-16 07:31N 60°19' E 026°53'611.1
2017-Sep-16 07:01N 60°25' E 026°55'1 1.5
2017-Sep-16 06:29N 60°25' E 026°55'0 0.0
2017-Sep-16 05:59N 60°25' E 026°55'0 0.0
2017-Sep-16 05:29N 60°25' E 026°55'0 0.0
2017-Sep-16 04:59N 60°25' E 026°55'0 0.0
2017-Sep-16 04:29N 60°25' E 026°55'0 0.0
2017-Sep-16 03:59N 60°25' E 026°55'0 0.0
2017-Sep-16 03:29N 60°25' E 026°55'0 0.0
2017-Sep-16 02:59N 60°25' E 026°55'0 0.0
2017-Sep-16 02:29N 60°25' E 026°55'0 0.0
2017-Sep-16 01:59N 60°25' E 026°55'0 0.0
2017-Sep-16 01:29N 60°25' E 026°55'0 0.0
2017-Sep-16 00:59N 60°25' E 026°55'0 0.0
2017-Sep-16 00:29N 60°25' E 026°55'0 0.0
2017-Sep-15 23:59N 60°25' E 026°55'0 0.0
2017-Sep-15 23:29N 60°25' E 026°55'0 0.0
2017-Sep-15 22:59N 60°25' E 026°55'0 0.0
2017-Sep-15 22:29N 60°25' E 026°55'0 0.0
2017-Sep-15 21:59N 60°25' E 026°55'0 0.0
2017-Sep-15 21:29N 60°25' E 026°55'0 0.0
2017-Sep-15 20:59N 60°25' E 026°55'0 0.0
2017-Sep-15 20:29N 60°25' E 026°55'0 0.0
2017-Sep-15 19:59N 60°25' E 026°55'0 0.0
2017-Sep-15 19:29N 60°25' E 026°55'0 0.0
2017-Sep-15 18:59N 60°25' E 026°55'0 0.0
2017-Sep-15 18:29N 60°25' E 026°55'0 0.0
2017-Sep-15 17:59N 60°25' E 026°55'0 0.0
2017-Sep-15 17:29N 60°25' E 026°55'0 0.0
2017-Sep-15 16:59N 60°25' E 026°55'0 0.0
2017-Sep-15 16:29N 60°25' E 026°55'0 0.0
2017-Sep-15 15:59N 60°25' E 026°55'0 0.0
2017-Sep-15 15:29N 60°25' E 026°55'0 0.0
2017-Sep-15 14:59N 60°25' E 026°55'0 0.0
2017-Sep-15 14:29N 60°25' E 026°55'0 0.0
2017-Sep-15 13:59N 60°25' E 026°55'0 0.0
2017-Sep-15 13:29N 60°25' E 026°55'0 0.0
2017-Sep-15 12:59N 60°25' E 026°55'0 0.0
2017-Sep-15 12:29N 60°25' E 026°55'0 0.0
2017-Sep-15 11:59N 60°25' E 026°55'0 0.0
2017-Sep-15 11:29N 60°25' E 026°55'0 0.0
2017-Sep-15 10:59N 60°25' E 026°55'0 0.0
2017-Sep-15 10:29N 60°25' E 026°55'0 0.0
2017-Sep-15 09:59N 60°25' E 026°55'0 0.0
2017-Sep-15 09:29N 60°25' E 026°55'0 0.0
2017-Sep-15 08:59N 60°25' E 026°55'0 0.0
2017-Sep-15 08:29N 60°25' E 026°55'0 0.0
2017-Sep-15 07:59N 60°25' E 026°55'0 0.0
2017-Sep-15 07:29N 60°25' E 026°55'0 0.0
2017-Sep-15 06:59N 60°25' E 026°55'0 0.0
2017-Sep-15 06:29N 60°25' E 026°55'0 0.0
2017-Sep-15 05:59N 60°25' E 026°55'0 0.0
2017-Sep-15 05:29N 60°25' E 026°55'0 0.0
2017-Sep-15 04:59N 60°25' E 026°55'0 0.0
2017-Sep-15 04:29N 60°25' E 026°55'0 0.0
2017-Sep-15 03:59N 60°25' E 026°55'0 0.0
2017-Sep-15 03:29N 60°25' E 026°55'0 0.0
2017-Sep-15 02:59N 60°25' E 026°55'0 0.0
2017-Sep-15 02:29N 60°25' E 026°55'0 0.0
2017-Sep-15 01:59N 60°25' E 026°55'0 0.0
2017-Sep-15 01:29N 60°25' E 026°55'0 0.0
2017-Sep-15 00:59N 60°25' E 026°55'0 0.0
2017-Sep-15 00:29N 60°25' E 026°55'0 0.0
2017-Sep-14 23:59N 60°25' E 026°55'0 0.0
2017-Sep-14 23:29N 60°25' E 026°55'0 0.0
2017-Sep-14 22:59N 60°25' E 026°55'0 0.0
2017-Sep-14 22:29N 60°25' E 026°55'0 0.0
2017-Sep-14 21:59N 60°25' E 026°55'0 0.0
2017-Sep-14 21:29N 60°25' E 026°55'0 0.0
2017-Sep-14 20:59N 60°25' E 026°55'0 0.0
2017-Sep-14 20:29N 60°25' E 026°55'0 0.0
2017-Sep-14 19:59N 60°25' E 026°55'0 0.0
2017-Sep-14 19:29N 60°25' E 026°55'0 0.0
2017-Sep-14 18:59N 60°25' E 026°55'0 0.0
2017-Sep-14 18:29N 60°25' E 026°55'0 0.0
2017-Sep-14 17:59N 60°25' E 026°55'0 0.0
2017-Sep-14 17:29N 60°25' E 026°55'0 0.0
2017-Sep-14 16:59N 60°25' E 026°55'0 0.0
2017-Sep-14 16:29N 60°25' E 026°55'0 0.0
2017-Sep-14 15:59N 60°25' E 026°55'0 0.0
2017-Sep-14 15:29N 60°25' E 026°55'0 0.0
2017-Sep-14 14:59N 60°25' E 026°55'0 0.0
2017-Sep-14 14:29N 60°25' E 026°55'0 0.0
2017-Sep-14 13:59N 60°25' E 026°55'0 0.0
2017-Sep-14 13:29N 60°25' E 026°55'0 0.0
2017-Sep-14 12:59N 60°25' E 026°55'0 0.0
2017-Sep-14 12:29N 60°25' E 026°55'0 0.0
2017-Sep-14 11:59N 60°25' E 026°55'0 0.0
2017-Sep-14 11:29N 60°25' E 026°55'0 0.0
2017-Sep-14 10:59N 60°25' E 026°55'0 0.0
2017-Sep-14 10:29N 60°25' E 026°55'0 0.0
2017-Sep-14 09:59N 60°25' E 026°55'0 0.0
2017-Sep-14 09:29N 60°25' E 026°55'0 0.0
2017-Sep-14 08:59N 60°25' E 026°55'0 0.0
2017-Sep-14 08:29N 60°25' E 026°55'0 0.0
2017-Sep-14 07:59N 60°25' E 026°55'0 0.0
2017-Sep-14 07:29N 60°25' E 026°55'0 0.0
2017-Sep-14 06:59N 60°25' E 026°55'0 0.0
2017-Sep-14 06:29N 60°25' E 026°55'0 0.0
2017-Sep-14 05:59N 60°25' E 026°55'0 0.0
2017-Sep-14 05:29N 60°25' E 026°55'0 0.0
2017-Sep-14 04:59N 60°26' E 026°55'0 0.1
2017-Sep-14 04:29N 60°26' E 026°55'0 0.0
2017-Sep-14 03:59N 60°26' E 026°55'0 0.0
2017-Sep-14 03:29N 60°26' E 026°55'0 0.0
2017-Sep-14 02:59N 60°26' E 026°55'0 0.0
2017-Sep-14 02:29N 60°26' E 026°55'0 0.0
2017-Sep-14 01:59N 60°26' E 026°55'0 0.0
2017-Sep-14 01:29N 60°26' E 026°55'0 0.0
2017-Sep-14 00:59N 60°26' E 026°55'0 0.0
2017-Sep-14 00:29N 60°26' E 026°55'0 0.0
2017-Sep-13 23:59N 60°26' E 026°55'0 0.0
2017-Sep-13 23:29N 60°26' E 026°55'0 0.0
2017-Sep-13 22:59N 60°26' E 026°55'0 0.0
2017-Sep-13 22:29N 60°26' E 026°55'0 0.0
2017-Sep-13 21:59N 60°26' E 026°55'0 0.0
2017-Sep-13 21:29N 60°26' E 026°55'0 0.0
2017-Sep-13 20:59N 60°26' E 026°55'0 0.0
2017-Sep-13 20:29N 60°26' E 026°55'0 0.0
2017-Sep-13 19:59N 60°26' E 026°55'0 0.0
2017-Sep-13 19:29N 60°26' E 026°55'0 0.0
2017-Sep-13 18:59N 60°26' E 026°55'0 0.0
2017-Sep-13 18:29N 60°26' E 026°55'0 0.0
2017-Sep-13 17:59N 60°26' E 026°55'0 0.0
2017-Sep-13 17:29N 60°26' E 026°55'0 0.0
2017-Sep-13 16:59N 60°26' E 026°55'0 0.0
2017-Sep-13 16:29N 60°26' E 026°55'0 0.0
2017-Sep-13 15:59N 60°26' E 026°55'0 0.0
2017-Sep-13 15:29N 60°26' E 026°55'0 0.0
2017-Sep-13 14:59N 60°26' E 026°55'0 0.0
2017-Sep-13 14:29N 60°26' E 026°55'0 0.0
2017-Sep-13 13:59N 60°26' E 026°55'0 0.0
2017-Sep-13 13:29N 60°26' E 026°55'0 0.0
2017-Sep-13 12:59N 60°26' E 026°55'0 0.0
2017-Sep-13 12:29N 60°26' E 026°55'0 0.0
2017-Sep-13 11:59N 60°26' E 026°55'0 0.0
2017-Sep-13 11:29N 60°26' E 026°55'0 0.0
2017-Sep-13 10:59N 60°26' E 026°55'0 0.0
2017-Sep-13 10:29N 60°26' E 026°55'0 0.0
2017-Sep-13 09:59N 60°26' E 026°55'0 0.0
2017-Sep-13 09:29N 60°26' E 026°55'0 0.0
2017-Sep-13 08:59N 60°26' E 026°55'0 0.0
2017-Sep-13 08:29N 60°26' E 026°55'0 0.0
2017-Sep-13 07:59N 60°26' E 026°55'0 0.0
2017-Sep-13 07:29N 60°26' E 026°55'0 0.0
2017-Sep-13 06:59N 60°26' E 026°55'0 0.0
2017-Sep-13 06:28N 60°26' E 026°55'0 0.0
2017-Sep-13 05:59N 60°26' E 026°55'0 0.0
2017-Sep-13 05:29N 60°26' E 026°55'0 0.0
2017-Sep-13 04:59N 60°26' E 026°55'0 0.0
2017-Sep-13 04:29N 60°26' E 026°55'0 0.0
2017-Sep-13 03:59N 60°26' E 026°55'0 0.0
2017-Sep-13 03:29N 60°26' E 026°55'0 0.0
2017-Sep-13 02:59N 60°26' E 026°55'0 0.0
2017-Sep-13 02:29N 60°26' E 026°55'0 0.0
2017-Sep-13 01:59N 60°26' E 026°55'0 0.0
2017-Sep-13 01:29N 60°26' E 026°55'0 0.0
2017-Sep-13 00:59N 60°26' E 026°55'0 0.0
2017-Sep-13 00:28N 60°26' E 026°55'0 0.0
2017-Sep-12 23:59N 60°26' E 026°55'0 0.0
2017-Sep-12 23:29N 60°26' E 026°55'0 0.0
2017-Sep-12 22:59N 60°26' E 026°55'0 0.0
2017-Sep-12 22:28N 60°26' E 026°55'0 0.0
2017-Sep-12 21:58N 60°26' E 026°55'0 0.0
2017-Sep-12 21:29N 60°26' E 026°55'0 0.0
2017-Sep-12 20:59N 60°26' E 026°55'0 0.0
2017-Sep-12 20:28N 60°26' E 026°55'0 0.0
2017-Sep-12 19:58N 60°26' E 026°55'0 0.0
2017-Sep-12 19:29N 60°26' E 026°55'0 0.0
2017-Sep-12 18:58N 60°26' E 026°55'0 0.0
2017-Sep-12 18:28N 60°26' E 026°55'0 0.0
2017-Sep-12 17:58N 60°26' E 026°55'0 0.0
2017-Sep-12 17:29N 60°26' E 026°55'0 0.0
2017-Sep-12 16:59N 60°26' E 026°55'0 0.0
2017-Sep-12 16:28N 60°26' E 026°55'0 0.0
2017-Sep-12 15:58N 60°26' E 026°55'0 0.0
2017-Sep-12 15:28N 60°26' E 026°55'0 0.0
2017-Sep-12 14:59N 60°26' E 026°55'0 0.0
2017-Sep-12 14:28N 60°26' E 026°55'0 0.0
2017-Sep-12 13:58N 60°26' E 026°55'0 0.0
2017-Sep-12 13:28N 60°26' E 026°55'0 0.0
2017-Sep-12 12:59N 60°26' E 026°55'0 0.0
2017-Sep-12 12:28N 60°26' E 026°55'0 0.0
2017-Sep-12 11:58N 60°26' E 026°55'0 0.0
2017-Sep-12 11:29N 60°26' E 026°55'0 0.0
2017-Sep-12 10:59N 60°26' E 026°55'0 0.0
2017-Sep-12 10:29N 60°26' E 026°55'0 0.0
2017-Sep-12 09:59N 60°26' E 026°55'0 0.0
2017-Sep-12 09:28N 60°26' E 026°55'0 0.0
2017-Sep-12 08:58N 60°26' E 026°55'0 0.0
2017-Sep-12 08:28N 60°26' E 026°55'0 0.0
2017-Sep-12 07:59N 60°26' E 026°55'0 0.0
2017-Sep-12 07:29N 60°26' E 026°55'0 0.0
2017-Sep-12 06:58N 60°26' E 026°55'0 0.0
2017-Sep-12 06:28N 60°26' E 026°55'0 0.0
2017-Sep-12 05:58N 60°26' E 026°55'0 0.0
2017-Sep-12 05:28N 60°26' E 026°55'0 0.0
2017-Sep-12 04:58N 60°26' E 026°55'0 0.0
2017-Sep-12 04:28N 60°26' E 026°55'0 0.0
2017-Sep-12 03:58N 60°26' E 026°55'0 0.0
2017-Sep-12 03:28N 60°26' E 026°55'0 0.0
2017-Sep-12 02:59N 60°26' E 026°55'0 0.0
2017-Sep-12 02:29N 60°26' E 026°55'  
Track history (hours):
 
Tides and Currents Weather Stations Pressure Air Temp Water Temp Dewpoint Dewpoint Depression Visibility Wind Speed Wind Dir Waves Ship Positions

Ocean Mercury

Last reported at 2017-Sep-22 02:00 UTC. Time now 2017-Sep-23 02:24 UTC.
Position N 50°30' W 000°10'.

Length 186 m; draft 10.6 m.

Type: Cargo ship. MMSI: 373155000.

Date/timePositionNaut miles runAvg speedWind from/ knotsBaromVisibWave heightAir tempDewpointWater temp
2017-Sep-22 02:00N 50°30' W 000°10'713.3
2017-Sep-22 01:30N 50°32' E 000°00'612.8
2017-Sep-22 01:00N 50°34' E 000°10'612.2
2017-Sep-22 00:30N 50°35' E 000°19'611.6
2017-Sep-22 00:00N 50°37' E 000°28'511.0
2017-Sep-21 23:30N 50°39' E 000°36'510.9
2017-Sep-21 23:00N 50°42' E 000°43'510.6
2017-Sep-21 22:30N 50°45' E 000°50'510.7
2017-Sep-21 22:00N 50°48' E 000°57'611.3
2017-Sep-21 21:29N 50°51' E 001°05'612.2
2017-Sep-21 20:59N 50°56' E 001°12'613.4
2017-Sep-21 20:30N 50°60' E 001°19'714.4
2017-Sep-21 20:00N 51°04' E 001°28'714.8
2017-Sep-21 19:30N 51°09' E 001°37'714.0
2017-Sep-21 19:01N 51°14' E 001°45'713.2
2017-Sep-21 18:31N 51°20' E 001°50'612.2
2017-Sep-21 18:01N 51°25' E 001°54'611.3
2017-Sep-21 17:30N 51°30' E 001°60'511.0
2017-Sep-21 17:01N 51°34' E 002°06'510.8
2017-Sep-21 16:31N 51°38' E 002°11'510.5
2017-Sep-21 16:00N 51°42' E 002°17'510.3
2017-Sep-21 15:30N 51°46' E 002°23'15 9.8
2017-Sep-21 13:59N 51°58' E 002°37'510.2
2017-Sep-21 13:27N 52°03' E 002°38'1211.0
2017-Sep-21 12:23N 52°15' E 002°39'512.0
2017-Sep-21 11:58N 52°20' E 002°38'712.4
2017-Sep-21 11:26N 52°26' E 002°38'9611.6
2017-Sep-21 03:10N 53°59' E 003°24'1312.3
2017-Sep-21 02:06N 53°60' E 003°47'18311.6
2017-Sep-20 10:21N 56°21' E 007°09'412.4
2017-Sep-20 10:00N 56°25' E 007°13'612.4
2017-Sep-20 09:30N 56°30' E 007°19'612.4
2017-Sep-20 09:00N 56°35' E 007°25'12211.4
2017-Sep-19 22:20N 57°47' E 010°27'512.5
2017-Sep-19 21:58N 57°47' E 010°36'612.4
2017-Sep-19 21:30N 57°48' E 010°47'511.1
2017-Sep-19 21:00N 57°44' E 010°54'712.3
2017-Sep-19 20:28N 57°40' E 011°04'612.6
2017-Sep-19 20:01N 57°36' E 011°12'612.5
2017-Sep-19 19:30N 57°32' E 011°21'612.5
2017-Sep-19 19:00N 57°26' E 011°27'612.6
2017-Sep-19 18:30N 57°20' E 011°31'612.3
2017-Sep-19 18:00N 57°15' E 011°35'712.3
2017-Sep-19 17:26N 57°08' E 011°39'612.7
2017-Sep-19 16:57N 57°02' E 011°43'10511.3
2017-Sep-19 07:36N 55°19' E 011°02'612.6
2017-Sep-19 07:07N 55°14' E 011°06'112.6
2017-Sep-19 07:00N 55°12' E 011°06'613.1
2017-Sep-19 06:31N 55°06' E 011°03'713.2
2017-Sep-19 06:01N 54°60' E 010°59'713.0
2017-Sep-19 05:30N 54°55' E 010°52'713.4
2017-Sep-19 05:01N 54°48' E 010°50'612.1
2017-Sep-19 04:31N 54°42' E 010°46'4 8.0
2017-Sep-19 04:01N 54°39' E 010°50'3 5.5
2017-Sep-19 03:31N 54°38' E 010°54'4 7.6
2017-Sep-19 03:01N 54°36' E 011°00'612.0
2017-Sep-19 02:31N 54°36' E 011°11'611.4
2017-Sep-19 02:01N 54°34' E 011°20'612.1
2017-Sep-19 01:31N 54°31' E 011°29'612.0
2017-Sep-19 01:00N 54°28' E 011°38'612.1
2017-Sep-19 00:30N 54°26' E 011°48'712.2
2017-Sep-18 23:56N 54°26' E 011°60'512.2
2017-Sep-18 23:31N 54°26' E 012°09'611.4
2017-Sep-18 23:01N 54°31' E 012°13'612.1
2017-Sep-18 22:31N 54°37' E 012°16'712.2
2017-Sep-18 21:57N 54°41' E 012°26'512.2
2017-Sep-18 21:31N 54°44' E 012°34'1811.9
2017-Sep-18 19:57N 54°52' E 013°03'512.1
2017-Sep-18 19:31N 54°53' E 013°12'1712.2
2017-Sep-18 18:09N 54°59' E 013°39'1412.0
2017-Sep-18 16:59N 55°04' E 014°02'812.3
2017-Sep-18 16:18N 55°10' E 014°12'412.3
2017-Sep-18 15:59N 55°13' E 014°16'612.1
2017-Sep-18 15:30N 55°17' E 014°23'612.2
2017-Sep-18 15:00N 55°22' E 014°30'612.1
2017-Sep-18 14:30N 55°27' E 014°37'712.8
2017-Sep-18 13:59N 55°30' E 014°47'1112.7
2017-Sep-18 13:07N 55°35' E 015°04'212.6
2017-Sep-18 13:00N 55°36' E 015°07'612.4
2017-Sep-18 12:31N 55°38' E 015°17'612.6
2017-Sep-18 12:01N 55°40' E 015°27'612.5
2017-Sep-18 11:31N 55°41' E 015°38'612.6
2017-Sep-18 11:01N 55°43' E 015°49'612.7
2017-Sep-18 10:31N 55°44' E 015°60'612.6
2017-Sep-18 10:01N 55°46' E 016°11'612.5
2017-Sep-18 09:31N 55°48' E 016°21'612.6
2017-Sep-18 09:01N 55°49' E 016°32'612.5
2017-Sep-18 08:30N 55°51' E 016°43'301 7.9
2017-Sep-16 18:34N 59°34' E 023°00'112.6
2017-Sep-16 18:29N 59°35' E 023°02'612.4
2017-Sep-16 18:00N 59°37' E 023°14'612.1
2017-Sep-16 17:30N 59°38' E 023°25'612.1
2017-Sep-16 17:00N 59°39' E 023°37'612.2
2017-Sep-16 16:29N 59°41' E 023°49'612.2
2017-Sep-16 16:00N 59°42' E 023°60'712.4
2017-Sep-16 15:28N 59°45' E 024°13'512.0
2017-Sep-16 15:01N 59°46' E 024°23'611.5
2017-Sep-16 14:31N 59°47' E 024°34'611.4
2017-Sep-16 14:01N 59°48' E 024°45'611.6
2017-Sep-16 13:31N 59°50' E 024°56'3911.6
2017-Sep-16 10:07N 60°00' E 026°12'111.5
2017-Sep-16 10:01N 60°01' E 026°14'611.5
2017-Sep-16 09:31N 60°04' E 026°23'611.4
2017-Sep-16 09:01N 60°08' E 026°32'5 9.3
2017-Sep-16 08:30N 60°11' E 026°39'611.7
2017-Sep-16 08:00N 60°15' E 026°49'510.3
2017-Sep-16 07:31N 60°19' E 026°53'611.1
2017-Sep-16 07:01N 60°25' E 026°55'1 1.5
2017-Sep-16 06:29N 60°25' E 026°55'0 0.0
2017-Sep-16 05:59N 60°25' E 026°55'0 0.0
2017-Sep-16 05:29N 60°25' E 026°55'0 0.0
2017-Sep-16 04:59N 60°25' E 026°55'0 0.0
2017-Sep-16 04:29N 60°25' E 026°55'0 0.0
2017-Sep-16 03:59N 60°25' E 026°55'0 0.0
2017-Sep-16 03:29N 60°25' E 026°55'0 0.0
2017-Sep-16 02:59N 60°25' E 026°55'0 0.0
2017-Sep-16 02:29N 60°25' E 026°55'0 0.0
2017-Sep-16 01:59N 60°25' E 026°55'0 0.0
2017-Sep-16 01:29N 60°25' E 026°55'0 0.0
2017-Sep-16 00:59N 60°25' E 026°55'0 0.0
2017-Sep-16 00:29N 60°25' E 026°55'0 0.0
2017-Sep-15 23:59N 60°25' E 026°55'0 0.0
2017-Sep-15 23:29N 60°25' E 026°55'0 0.0
2017-Sep-15 22:59N 60°25' E 026°55'0 0.0
2017-Sep-15 22:29N 60°25' E 026°55'0 0.0
2017-Sep-15 21:59N 60°25' E 026°55'0 0.0
2017-Sep-15 21:29N 60°25' E 026°55'0 0.0
2017-Sep-15 20:59N 60°25' E 026°55'0 0.0
2017-Sep-15 20:29N 60°25' E 026°55'0 0.0
2017-Sep-15 19:59N 60°25' E 026°55'0 0.0
2017-Sep-15 19:29N 60°25' E 026°55'0 0.0
2017-Sep-15 18:59N 60°25' E 026°55'0 0.0
2017-Sep-15 18:29N 60°25' E 026°55'0 0.0
2017-Sep-15 17:59N 60°25' E 026°55'0 0.0
2017-Sep-15 17:29N 60°25' E 026°55'0 0.0
2017-Sep-15 16:59N 60°25' E 026°55'0 0.0
2017-Sep-15 16:29N 60°25' E 026°55'0 0.0
2017-Sep-15 15:59N 60°25' E 026°55'0 0.0
2017-Sep-15 15:29N 60°25' E 026°55'0 0.0
2017-Sep-15 14:59N 60°25' E 026°55'0 0.0
2017-Sep-15 14:29N 60°25' E 026°55'0 0.0
2017-Sep-15 13:59N 60°25' E 026°55'0 0.0
2017-Sep-15 13:29N 60°25' E 026°55'0 0.0
2017-Sep-15 12:59N 60°25' E 026°55'0 0.0
2017-Sep-15 12:29N 60°25' E 026°55'0 0.0
2017-Sep-15 11:59N 60°25' E 026°55'0 0.0
2017-Sep-15 11:29N 60°25' E 026°55'0 0.0
2017-Sep-15 10:59N 60°25' E 026°55'0 0.0
2017-Sep-15 10:29N 60°25' E 026°55'0 0.0
2017-Sep-15 09:59N 60°25' E 026°55'0 0.0
2017-Sep-15 09:29N 60°25' E 026°55'0 0.0
2017-Sep-15 08:59N 60°25' E 026°55'0 0.0
2017-Sep-15 08:29N 60°25' E 026°55'0 0.0
2017-Sep-15 07:59N 60°25' E 026°55'0 0.0
2017-Sep-15 07:29N 60°25' E 026°55'0 0.0
2017-Sep-15 06:59N 60°25' E 026°55'0 0.0
2017-Sep-15 06:29N 60°25' E 026°55'0 0.0
2017-Sep-15 05:59N 60°25' E 026°55'0 0.0
2017-Sep-15 05:29N 60°25' E 026°55'0 0.0
2017-Sep-15 04:59N 60°25' E 026°55'0 0.0
2017-Sep-15 04:29N 60°25' E 026°55'0 0.0
2017-Sep-15 03:59N 60°25' E 026°55'0 0.0
2017-Sep-15 03:29N 60°25' E 026°55'0 0.0
2017-Sep-15 02:59N 60°25' E 026°55'0 0.0
2017-Sep-15 02:29N 60°25' E 026°55'0 0.0
2017-Sep-15 01:59N 60°25' E 026°55'0 0.0
2017-Sep-15 01:29N 60°25' E 026°55'0 0.0
2017-Sep-15 00:59N 60°25' E 026°55'0 0.0
2017-Sep-15 00:29N 60°25' E 026°55'0 0.0
2017-Sep-14 23:59N 60°25' E 026°55'0 0.0
2017-Sep-14 23:29N 60°25' E 026°55'0 0.0
2017-Sep-14 22:59N 60°25' E 026°55'0 0.0
2017-Sep-14 22:29N 60°25' E 026°55'0 0.0
2017-Sep-14 21:59N 60°25' E 026°55'0 0.0
2017-Sep-14 21:29N 60°25' E 026°55'0 0.0
2017-Sep-14 20:59N 60°25' E 026°55'0 0.0
2017-Sep-14 20:29N 60°25' E 026°55'0 0.0
2017-Sep-14 19:59N 60°25' E 026°55'0 0.0
2017-Sep-14 19:29N 60°25' E 026°55'0 0.0
2017-Sep-14 18:59N 60°25' E 026°55'0 0.0
2017-Sep-14 18:29N 60°25' E 026°55'0 0.0
2017-Sep-14 17:59N 60°25' E 026°55'0 0.0
2017-Sep-14 17:29N 60°25' E 026°55'0 0.0
2017-Sep-14 16:59N 60°25' E 026°55'0 0.0
2017-Sep-14 16:29N 60°25' E 026°55'0 0.0
2017-Sep-14 15:59N 60°25' E 026°55'0 0.0
2017-Sep-14 15:29N 60°25' E 026°55'0 0.0
2017-Sep-14 14:59N 60°25' E 026°55'0 0.0
2017-Sep-14 14:29N 60°25' E 026°55'0 0.0
2017-Sep-14 13:59N 60°25' E 026°55'0 0.0
2017-Sep-14 13:29N 60°25' E 026°55'0 0.0
2017-Sep-14 12:59N 60°25' E 026°55'0 0.0
2017-Sep-14 12:29N 60°25' E 026°55'0 0.0
2017-Sep-14 11:59N 60°25' E 026°55'0 0.0
2017-Sep-14 11:29N 60°25' E 026°55'0 0.0
2017-Sep-14 10:59N 60°25' E 026°55'0 0.0
2017-Sep-14 10:29N 60°25' E 026°55'0 0.0
2017-Sep-14 09:59N 60°25' E 026°55'0 0.0
2017-Sep-14 09:29N 60°25' E 026°55'0 0.0
2017-Sep-14 08:59N 60°25' E 026°55'0 0.0
2017-Sep-14 08:29N 60°25' E 026°55'0 0.0
2017-Sep-14 07:59N 60°25' E 026°55'0 0.0
2017-Sep-14 07:29N 60°25' E 026°55'0 0.0
2017-Sep-14 06:59N 60°25' E 026°55'0 0.0
2017-Sep-14 06:29N 60°25' E 026°55'0 0.0
2017-Sep-14 05:59N 60°25' E 026°55'0 0.0
2017-Sep-14 05:29N 60°25' E 026°55'0 0.0
2017-Sep-14 04:59N 60°26' E 026°55'0 0.1
2017-Sep-14 04:29N 60°26' E 026°55'0 0.0
2017-Sep-14 03:59N 60°26' E 026°55'0 0.0
2017-Sep-14 03:29N 60°26' E 026°55'0 0.0
2017-Sep-14 02:59N 60°26' E 026°55'0 0.0
2017-Sep-14 02:29N 60°26' E 026°55'0 0.0
2017-Sep-14 01:59N 60°26' E 026°55'0 0.0
2017-Sep-14 01:29N 60°26' E 026°55'0 0.0
2017-Sep-14 00:59N 60°26' E 026°55'0 0.0
2017-Sep-14 00:29N 60°26' E 026°55'0 0.0
2017-Sep-13 23:59N 60°26' E 026°55'0 0.0
2017-Sep-13 23:29N 60°26' E 026°55'0 0.0
2017-Sep-13 22:59N 60°26' E 026°55'0 0.0
2017-Sep-13 22:29N 60°26' E 026°55'0 0.0
2017-Sep-13 21:59N 60°26' E 026°55'0 0.0
2017-Sep-13 21:29N 60°26' E 026°55'0 0.0
2017-Sep-13 20:59N 60°26' E 026°55'0 0.0
2017-Sep-13 20:29N 60°26' E 026°55'0 0.0
2017-Sep-13 19:59N 60°26' E 026°55'0 0.0
2017-Sep-13 19:29N 60°26' E 026°55'0 0.0
2017-Sep-13 18:59N 60°26' E 026°55'0 0.0
2017-Sep-13 18:29N 60°26' E 026°55'0 0.0
2017-Sep-13 17:59N 60°26' E 026°55'0 0.0
2017-Sep-13 17:29N 60°26' E 026°55'0 0.0
2017-Sep-13 16:59N 60°26' E 026°55'0 0.0
2017-Sep-13 16:29N 60°26' E 026°55'0 0.0
2017-Sep-13 15:59N 60°26' E 026°55'0 0.0
2017-Sep-13 15:29N 60°26' E 026°55'0 0.0
2017-Sep-13 14:59N 60°26' E 026°55'0 0.0
2017-Sep-13 14:29N 60°26' E 026°55'0 0.0
2017-Sep-13 13:59N 60°26' E 026°55'0 0.0
2017-Sep-13 13:29N 60°26' E 026°55'0 0.0
2017-Sep-13 12:59N 60°26' E 026°55'0 0.0
2017-Sep-13 12:29N 60°26' E 026°55'0 0.0
2017-Sep-13 11:59N 60°26' E 026°55'0 0.0
2017-Sep-13 11:29N 60°26' E 026°55'0 0.0
2017-Sep-13 10:59N 60°26' E 026°55'0 0.0
2017-Sep-13 10:29N 60°26' E 026°55'0 0.0
2017-Sep-13 09:59N 60°26' E 026°55'0 0.0
2017-Sep-13 09:29N 60°26' E 026°55'0 0.0
2017-Sep-13 08:59N 60°26' E 026°55'0 0.0
2017-Sep-13 08:29N 60°26' E 026°55'0 0.0
2017-Sep-13 07:59N 60°26' E 026°55'0 0.0
2017-Sep-13 07:29N 60°26' E 026°55'0 0.0
2017-Sep-13 06:59N 60°26' E 026°55'0 0.0
2017-Sep-13 06:28N 60°26' E 026°55'0 0.0
2017-Sep-13 05:59N 60°26' E 026°55'0 0.0
2017-Sep-13 05:29N 60°26' E 026°55'0 0.0
2017-Sep-13 04:59N 60°26' E 026°55'0 0.0
2017-Sep-13 04:29N 60°26' E 026°55'0 0.0
2017-Sep-13 03:59N 60°26' E 026°55'0 0.0
2017-Sep-13 03:29N 60°26' E 026°55'0 0.0
2017-Sep-13 02:59N 60°26' E 026°55'0 0.0
2017-Sep-13 02:29N 60°26' E 026°55'0 0.0
2017-Sep-13 01:59N 60°26' E 026°55'0 0.0
2017-Sep-13 01:29N 60°26' E 026°55'0 0.0
2017-Sep-13 00:59N 60°26' E 026°55'0 0.0
2017-Sep-13 00:28N 60°26' E 026°55'0 0.0
2017-Sep-12 23:59N 60°26' E 026°55'0 0.0
2017-Sep-12 23:29N 60°26' E 026°55'0 0.0
2017-Sep-12 22:59N 60°26' E 026°55'0 0.0
2017-Sep-12 22:28N 60°26' E 026°55'0 0.0
2017-Sep-12 21:58N 60°26' E 026°55'0 0.0
2017-Sep-12 21:29N 60°26' E 026°55'0 0.0
2017-Sep-12 20:59N 60°26' E 026°55'0 0.0
2017-Sep-12 20:28N 60°26' E 026°55'0 0.0
2017-Sep-12 19:58N 60°26' E 026°55'0 0.0
2017-Sep-12 19:29N 60°26' E 026°55'0 0.0
2017-Sep-12 18:58N 60°26' E 026°55'0 0.0
2017-Sep-12 18:28N 60°26' E 026°55'0 0.0
2017-Sep-12 17:58N 60°26' E 026°55'0 0.0
2017-Sep-12 17:29N 60°26' E 026°55'0 0.0
2017-Sep-12 16:59N 60°26' E 026°55'0 0.0
2017-Sep-12 16:28N 60°26' E 026°55'0 0.0
2017-Sep-12 15:58N 60°26' E 026°55'0 0.0
2017-Sep-12 15:28N 60°26' E 026°55'0 0.0
2017-Sep-12 14:59N 60°26' E 026°55'0 0.0
2017-Sep-12 14:28N 60°26' E 026°55'0 0.0
2017-Sep-12 13:58N 60°26' E 026°55'0 0.0
2017-Sep-12 13:28N 60°26' E 026°55'0 0.0
2017-Sep-12 12:59N 60°26' E 026°55'0 0.0
2017-Sep-12 12:28N 60°26' E 026°55'0 0.0
2017-Sep-12 11:58N 60°26' E 026°55'0 0.0
2017-Sep-12 11:29N 60°26' E 026°55'0 0.0
2017-Sep-12 10:59N 60°26' E 026°55'0 0.0
2017-Sep-12 10:29N 60°26' E 026°55'0 0.0
2017-Sep-12 09:59N 60°26' E 026°55'0 0.0
2017-Sep-12 09:28N 60°26' E 026°55'0 0.0
2017-Sep-12 08:58N 60°26' E 026°55'0 0.0
2017-Sep-12 08:28N 60°26' E 026°55'0 0.0
2017-Sep-12 07:59N 60°26' E 026°55'0 0.0
2017-Sep-12 07:29N 60°26' E 026°55'0 0.0
2017-Sep-12 06:58N 60°26' E 026°55'0 0.0
2017-Sep-12 06:28N 60°26' E 026°55'0 0.0
2017-Sep-12 05:58N 60°26' E 026°55'0 0.0
2017-Sep-12 05:28N 60°26' E 026°55'0 0.0
2017-Sep-12 04:58N 60°26' E 026°55'0 0.0
2017-Sep-12 04:28N 60°26' E 026°55'0 0.0
2017-Sep-12 03:58N 60°26' E 026°55'0 0.0
2017-Sep-12 03:28N 60°26' E 026°55'0 0.0
2017-Sep-12 02:59N 60°26' E 026°55'0 0.0
2017-Sep-12 02:29N 60°26' E 026°55'  

Dump ship's entire track history